Time;durP1;ratioP1;P1;durP2;ratioP2;P2;SDS_P1;SDS_P2;PMS_P1;PMS_P2;Temp;Humidity;BMP_temperature;BMP_pressure;BME280_temperature;BME280_humidity;BME280_pressure;Samples;Min_cycle;Max_cycle;Signal;HPM_P1;HPM_P2
2022/09/28 00:01:48;;;;;;;6.33;2.90;;;;;;;;;;6274323;22;20690;-87
2022/09/28 00:04:17;;;;;;;7.57;3.27;;;;;;;;;;6302461;22;20514;-87
2022/09/28 00:06:45;;;;;;;7.40;3.00;;;;;;;;;;6303022;22;20173;-86
2022/09/28 00:09:12;;;;;;;6.13;2.97;;;;;;;;;;6302791;22;20560;-86
2022/09/28 00:11:40;;;;;;;6.20;3.07;;;;;;;;;;6301293;22;20181;-86
2022/09/28 00:14:08;;;;;;;5.73;2.90;;;;;;;;;;6300055;22;20204;-86
2022/09/28 00:16:36;;;;;;;5.43;2.73;;;;;;;;;;6301576;22;20197;-87
2022/09/28 00:19:05;;;;;;;5.23;2.90;;;;;;;;;;6301274;22;20211;-86
2022/09/28 00:21:35;;;;;;;6.87;3.03;;;;;;;;;;6299382;22;20177;-86
2022/09/28 00:24:13;;;;;;;5.78;2.88;;;;;;;;;;6302326;22;20397;-85
2022/09/28 00:26:41;;;;;;;5.40;2.80;;;;;;;;;;6302857;22;20553;-86
2022/09/28 00:29:15;;;;;;;7.87;2.80;;;;;;;;;;6300983;22;20550;-86
2022/09/28 00:31:42;;;;;;;9.70;2.77;;;;;;;;;;6302377;22;20212;-86
2022/09/28 00:34:09;;;;;;;7.97;2.77;;;;;;;;;;6301340;22;20204;-86
2022/09/28 00:36:38;;;;;;;7.20;2.77;;;;;;;;;;6301805;22;20221;-86
2022/09/28 00:39:06;;;;;;;6.23;2.70;;;;;;;;;;6300312;22;20173;-86
2022/09/28 00:41:34;;;;;;;5.07;2.53;;;;;;;;;;6300594;22;20179;-86
2022/09/28 00:44:20;;;;;;;2.57;2.00;;;;;;;;;;6301554;22;20426;-86
2022/09/28 00:46:47;;;;;;;5.87;2.37;;;;;;;;;;6301694;22;20657;-86
2022/09/28 00:49:16;;;;;;;3.77;2.10;;;;;;;;;;6301616;22;20173;-86
2022/09/28 00:51:46;;;;;;;6.07;2.07;;;;;;;;;;6301515;22;20177;-85
2022/09/28 00:54:15;;;;;;;4.30;2.20;;;;;;;;;;6301440;22;20674;-86
2022/09/28 00:56:44;;;;;;;7.60;2.60;;;;;;;;;;6301028;22;20176;-86
2022/09/28 00:59:11;;;;;;;5.40;2.67;;;;;;;;;;6301408;22;20177;-87
2022/09/28 01:01:38;;;;;;;5.80;2.70;;;;;;;;;;6302269;22;20177;-87
2022/09/28 01:04:06;;;;;;;4.27;2.60;;;;;;;;;;6302755;22;20504;-87
2022/09/28 01:06:35;;;;;;;5.17;3.00;;;;;;;;;;6301806;22;20548;-86
2022/09/28 01:09:05;;;;;;;5.93;2.87;;;;;;;;;;6301530;22;20177;-86
2022/09/28 01:11:37;;;;;;;5.63;3.00;;;;;;;;;;6301560;22;20173;-88
2022/09/28 01:14:07;;;;;;;7.50;3.47;;;;;;;;;;6300245;22;20180;-86
2022/09/28 01:16:39;;;;;;;4.43;2.63;;;;;;;;;;6301704;22;20199;-87
2022/09/28 01:19:12;;;;;;;6.43;3.20;;;;;;;;;;6301702;22;20187;-85
2022/09/28 01:21:44;;;;;;;4.53;2.87;;;;;;;;;;6301475;22;20157;-87
2022/09/28 01:24:21;;;;;;;5.13;3.23;;;;;;;;;;6299343;22;20184;-86
2022/09/28 01:27:04;;;;;;;5.23;3.10;;;;;;;;;;6300702;22;20716;-86
2022/09/28 01:29:46;;;;;;;8.63;3.00;;;;;;;;;;6301440;22;20482;-87
2022/09/28 01:32:19;;;;;;;9.43;3.20;;;;;;;;;;6298293;22;20256;-86
2022/09/28 01:34:51;;;;;;;5.17;2.97;;;;;;;;;;6301565;22;20203;-86
2022/09/28 01:37:19;;;;;;;6.50;3.20;;;;;;;;;;6302090;22;20157;-86
2022/09/28 01:39:48;;;;;;;7.60;2.90;;;;;;;;;;6301329;22;20240;-87
2022/09/28 01:42:18;;;;;;;7.70;2.70;;;;;;;;;;6301277;22;20177;-87
2022/09/28 01:44:48;;;;;;;5.30;2.50;;;;;;;;;;6301323;22;20193;-86
2022/09/28 01:47:20;;;;;;;6.33;3.13;;;;;;;;;;6301997;22;20177;-87
2022/09/28 01:49:48;;;;;;;6.70;3.27;;;;;;;;;;6302920;22;20482;-88
2022/09/28 01:52:18;;;;;;;6.37;3.33;;;;;;;;;;6301728;22;20169;-87
2022/09/28 01:54:47;;;;;;;7.60;3.37;;;;;;;;;;6303110;22;20208;-85
2022/09/28 01:57:16;;;;;;;8.93;4.07;;;;;;;;;;6303169;22;20173;-87
2022/09/28 01:59:46;;;;;;;8.17;4.10;;;;;;;;;;6303398;22;20226;-86
2022/09/28 02:02:15;;;;;;;7.93;4.37;;;;;;;;;;6303760;22;20177;-86
2022/09/28 02:04:46;;;;;;;7.67;4.30;;;;;;;;;;6304538;22;20258;-87
2022/09/28 02:07:15;;;;;;;11.03;3.90;;;;;;;;;;6305136;22;20157;-88
2022/09/28 02:09:46;;;;;;;8.00;3.63;;;;;;;;;;6302615;22;20181;-86
2022/09/28 02:12:15;;;;;;;5.80;3.37;;;;;;;;;;6302541;22;20175;-86
2022/09/28 02:14:44;;;;;;;6.83;3.83;;;;;;;;;;6307710;22;20212;-87
2022/09/28 02:17:12;;;;;;;6.67;3.43;;;;;;;;;;6320272;22;20914;-87
2022/09/28 02:19:40;;;;;;;8.67;3.73;;;;;;;;;;6321043;22;20180;-88
2022/09/28 02:22:14;;;;;;;5.90;3.47;;;;;;;;;;6319057;22;20227;-88
2022/09/28 02:24:42;;;;;;;9.40;4.33;;;;;;;;;;6320339;22;20192;-87
2022/09/28 02:27:12;;;;;;;7.33;3.80;;;;;;;;;;6313966;22;20235;-88
2022/09/28 02:29:39;;;;;;;9.63;4.17;;;;;;;;;;6303076;22;20228;-87
2022/09/28 02:32:07;;;;;;;7.90;3.90;;;;;;;;;;6303734;22;20181;-87
2022/09/28 02:34:35;;;;;;;6.30;3.97;;;;;;;;;;6302760;22;20199;-87
2022/09/28 02:37:03;;;;;;;6.33;2.63;;;;;;;;;;6303766;22;20176;-88
2022/09/28 02:39:32;;;;;;;4.17;2.33;;;;;;;;;;6302765;22;20169;-87
2022/09/28 02:42:04;;;;;;;2.83;1.60;;;;;;;;;;6302484;22;20180;-87
2022/09/28 02:44:40;;;;;;;3.50;1.70;;;;;;;;;;6303717;22;20165;-87
2022/09/28 02:47:11;;;;;;;4.13;1.50;;;;;;;;;;6302754;22;20175;-85
2022/09/28 02:49:44;;;;;;;2.93;1.70;;;;;;;;;;6302783;22;20165;-87
2022/09/28 02:52:21;;;;;;;4.50;1.40;;;;;;;;;;6301860;22;20176;-87
2022/09/28 02:54:59;;;;;;;3.80;1.40;;;;;;;;;;6302517;22;20196;-87
2022/09/28 02:57:32;;;;;;;3.70;1.33;;;;;;;;;;6300092;22;20169;-87
2022/09/28 03:00:04;;;;;;;3.57;1.33;;;;;;;;;;6303678;22;20232;-87
2022/09/28 03:02:33;;;;;;;3.33;1.40;;;;;;;;;;6302728;22;20191;-88
2022/09/28 03:05:04;;;;;;;2.97;1.33;;;;;;;;;;6302916;22;20268;-87
2022/09/28 03:07:34;;;;;;;3.23;1.40;;;;;;;;;;6302088;22;20173;-88
2022/09/28 03:10:06;;;;;;;1.63;1.10;;;;;;;;;;6303502;22;20161;-87
2022/09/28 03:12:34;;;;;;;2.70;1.30;;;;;;;;;;6303271;22;20168;-87
2022/09/28 03:15:11;;;;;;;3.43;1.37;;;;;;;;;;6303081;22;20220;-86
2022/09/28 03:17:38;;;;;;;3.90;1.37;;;;;;;;;;6301956;22;20252;-87
2022/09/28 03:20:06;;;;;;;4.27;1.30;;;;;;;;;;6302648;22;20180;-86
2022/09/28 03:22:33;;;;;;;1.70;1.30;;;;;;;;;;6300576;22;20176;-86
2022/09/28 03:25:01;;;;;;;3.90;1.47;;;;;;;;;;6302652;22;20195;-87
2022/09/28 03:27:29;;;;;;;3.93;1.53;;;;;;;;;;6300163;22;20173;-86
2022/09/28 03:29:57;;;;;;;1.73;1.40;;;;;;;;;;6302685;22;20176;-87
2022/09/28 03:32:24;;;;;;;2.03;1.50;;;;;;;;;;6301997;22;20216;-86
2022/09/28 03:34:51;;;;;;;3.00;1.60;;;;;;;;;;6275738;22;20250;-86
2022/09/28 03:37:19;;;;;;;5.63;1.70;;;;;;;;;;6302960;22;20181;-87
2022/09/28 03:39:46;;;;;;;4.33;1.70;;;;;;;;;;6302076;22;20183;-87
2022/09/28 03:42:13;;;;;;;3.40;1.70;;;;;;;;;;6301853;22;20484;-86
2022/09/28 03:44:42;;;;;;;2.63;1.87;;;;;;;;;;6301084;22;20376;-87
2022/09/28 03:47:09;;;;;;;3.10;1.80;;;;;;;;;;6302483;22;20181;-86
2022/09/28 03:49:37;;;;;;;3.83;1.80;;;;;;;;;;6302318;22;20183;-87
2022/09/28 03:52:04;;;;;;;5.33;2.00;;;;;;;;;;6301793;22;20523;-85
2022/09/28 03:54:32;;;;;;;6.50;2.37;;;;;;;;;;6302211;22;20582;-86
2022/09/28 03:56:59;;;;;;;3.53;2.10;;;;;;;;;;6302273;22;20207;-86
2022/09/28 03:59:26;;;;;;;4.30;2.50;;;;;;;;;;6302167;22;20177;-86
2022/09/28 04:01:55;;;;;;;7.37;3.07;;;;;;;;;;6302259;22;20632;-86
2022/09/28 04:04:22;;;;;;;6.77;2.60;;;;;;;;;;6302741;22;20645;-86
2022/09/28 04:06:50;;;;;;;4.60;2.80;;;;;;;;;;6302563;22;20264;-86
2022/09/28 04:09:17;;;;;;;4.87;3.23;;;;;;;;;;6301617;22;20339;-86
2022/09/28 04:11:45;;;;;;;5.87;3.30;;;;;;;;;;6300641;22;20207;-86
2022/09/28 04:14:12;;;;;;;5.03;3.10;;;;;;;;;;6301078;22;20263;-87
2022/09/28 04:16:39;;;;;;;5.93;3.40;;;;;;;;;;6301611;22;20208;-86
2022/09/28 04:19:08;;;;;;;5.27;3.87;;;;;;;;;;6280592;22;20278;-77
2022/09/28 04:21:37;;;;;;;8.30;3.93;;;;;;;;;;6270219;22;20907;-78
2022/09/28 04:24:04;;;;;;;8.40;4.23;;;;;;;;;;6270575;22;20173;-78
2022/09/28 04:26:32;;;;;;;6.63;4.23;;;;;;;;;;6214387;23;20225;-78
2022/09/28 04:29:16;;;;;;;7.43;4.60;;;;;;;;;;6241038;23;20197;-78
2022/09/28 04:31:45;;;;;;;7.63;4.73;;;;;;;;;;6240749;23;20324;-78
2022/09/28 04:34:27;;;;;;;5.90;4.30;;;;;;;;;;6213219;23;20178;-79
2022/09/28 04:36:55;;;;;;;9.77;5.07;;;;;;;;;;6239885;23;20178;-79
2022/09/28 04:39:22;;;;;;;9.03;5.43;;;;;;;;;;6240273;23;20245;-78
2022/09/28 04:41:50;;;;;;;11.60;6.10;;;;;;;;;;6239511;23;20185;-79
2022/09/28 04:44:17;;;;;;;10.90;5.50;;;;;;;;;;6240277;22;20244;-79
2022/09/28 04:46:44;;;;;;;15.57;5.27;;;;;;;;;;6239588;23;20644;-78
2022/09/28 04:49:12;;;;;;;9.90;5.90;;;;;;;;;;6240373;23;20179;-78
2022/09/28 04:51:41;;;;;;;9.57;5.53;;;;;;;;;;6239655;23;20175;-78
2022/09/28 04:54:10;;;;;;;11.57;5.30;;;;;;;;;;6240036;23;20174;-79
2022/09/28 04:56:38;;;;;;;10.93;5.20;;;;;;;;;;6212617;23;20668;-78
2022/09/28 04:59:07;;;;;;;11.40;5.77;;;;;;;;;;6239305;23;20691;-80
2022/09/28 05:01:38;;;;;;;9.83;5.37;;;;;;;;;;6239602;23;20170;-79
2022/09/28 05:04:08;;;;;;;10.47;5.90;;;;;;;;;;6237834;23;20597;-76
2022/09/28 05:06:35;;;;;;;9.53;5.43;;;;;;;;;;6239954;22;20210;-77
2022/09/28 05:09:04;;;;;;;12.23;6.17;;;;;;;;;;6239355;23;20696;-77
2022/09/28 05:11:32;;;;;;;9.70;6.10;;;;;;;;;;6211224;23;20263;-77
2022/09/28 05:13:59;;;;;;;13.77;6.37;;;;;;;;;;6235955;23;20578;-77
2022/09/28 05:16:27;;;;;;;12.87;6.67;;;;;;;;;;6236467;22;20577;-77
2022/09/28 05:18:55;;;;;;;13.90;6.97;;;;;;;;;;6213565;23;20216;-77
2022/09/28 05:21:28;;;;;;;12.23;6.73;;;;;;;;;;6266379;22;20185;-77
2022/09/28 05:23:57;;;;;;;13.67;7.27;;;;;;;;;;6267649;22;20174;-77
2022/09/28 05:26:28;;;;;;;9.27;6.53;;;;;;;;;;6271770;22;20409;-77
2022/09/28 05:28:55;;;;;;;12.37;6.80;;;;;;;;;;6272524;22;20181;-77
2022/09/28 05:31:25;;;;;;;10.90;6.97;;;;;;;;;;6272589;22;20173;-77
2022/09/28 05:33:53;;;;;;;11.07;6.70;;;;;;;;;;6270583;22;20208;-77
2022/09/28 05:36:21;;;;;;;12.30;6.50;;;;;;;;;;6270819;22;20201;-77
2022/09/28 05:38:49;;;;;;;12.03;6.73;;;;;;;;;;6271605;22;20181;-77
2022/09/28 05:41:19;;;;;;;12.73;7.30;;;;;;;;;;6272107;22;20208;-77
2022/09/28 05:43:50;;;;;;;13.33;7.17;;;;;;;;;;6269221;22;20518;-77
2022/09/28 05:46:18;;;;;;;13.07;6.80;;;;;;;;;;6270539;22;20194;-77
2022/09/28 05:48:48;;;;;;;15.47;7.63;;;;;;;;;;6271353;22;20181;-77
2022/09/28 05:51:17;;;;;;;15.03;7.27;;;;;;;;;;6243820;22;20173;-77
2022/09/28 05:53:46;;;;;;;11.60;7.07;;;;;;;;;;6270913;22;20184;-79
2022/09/28 05:56:14;;;;;;;11.97;6.77;;;;;;;;;;6271727;22;20533;-76
2022/09/28 05:58:41;;;;;;;20.17;7.33;;;;;;;;;;6270640;22;20541;-77
2022/09/28 06:01:10;;;;;;;14.10;7.50;;;;;;;;;;6271313;22;20177;-77
2022/09/28 06:03:38;;;;;;;11.03;6.90;;;;;;;;;;6271374;22;20205;-77
2022/09/28 06:09:07;;;;;;;11.27;5.90;;;;;;;;;;6226438;22;20540;-79
2022/09/28 06:11:39;;;;;;;17.03;6.27;;;;;;;;;;6245987;22;20186;-77
2022/09/28 06:14:12;;;;;;;11.70;5.93;;;;;;;;;;6272199;22;20654;-77
2022/09/28 06:16:42;;;;;;;10.50;6.07;;;;;;;;;;6244989;22;20197;-77
2022/09/28 06:19:13;;;;;;;9.43;5.60;;;;;;;;;;6245265;22;20213;-76
2022/09/28 06:21:45;;;;;;;11.00;6.20;;;;;;;;;;6270537;22;20424;-76
2022/09/28 06:24:13;;;;;;;11.20;5.90;;;;;;;;;;6244438;22;20166;-77
2022/09/28 06:26:40;;;;;;;13.47;5.47;;;;;;;;;;6268872;22;20176;-77
2022/09/28 06:29:08;;;;;;;9.37;5.43;;;;;;;;;;6270994;22;20184;-77
2022/09/28 06:31:35;;;;;;;10.90;5.30;;;;;;;;;;6269306;22;20188;-78
2022/09/28 06:34:04;;;;;;;11.10;6.20;;;;;;;;;;6270294;22;20170;-77
2022/09/28 06:36:32;;;;;;;10.33;5.70;;;;;;;;;;6270266;22;20206;-77
2022/09/28 06:39:00;;;;;;;8.47;4.87;;;;;;;;;;6267870;22;20647;-77
2022/09/28 06:41:27;;;;;;;12.37;5.00;;;;;;;;;;6272141;22;20173;-76
2022/09/28 06:43:55;;;;;;;10.50;5.80;;;;;;;;;;6270101;22;20185;-77
2022/09/28 06:46:22;;;;;;;12.20;6.10;;;;;;;;;;6272281;22;20206;-76
2022/09/28 06:48:50;;;;;;;9.53;5.50;;;;;;;;;;6270004;22;20513;-77
2022/09/28 06:51:18;;;;;;;8.57;4.53;;;;;;;;;;6266543;22;20406;-76
2022/09/28 06:53:46;;;;;;;9.37;4.90;;;;;;;;;;6241439;22;20173;-77
2022/09/28 06:56:14;;;;;;;8.20;4.20;;;;;;;;;;6268722;22;20190;-77
2022/09/28 06:58:43;;;;;;;7.83;4.70;;;;;;;;;;6270069;22;20551;-77
2022/09/28 07:01:10;;;;;;;8.67;4.10;;;;;;;;;;6268251;22;20660;-78
2022/09/28 07:03:39;;;;;;;5.73;3.60;;;;;;;;;;6269949;22;20231;-75
2022/09/28 07:06:06;;;;;;;5.27;3.60;;;;;;;;;;6271590;22;20200;-75
2022/09/28 07:08:35;;;;;;;5.90;3.80;;;;;;;;;;6243680;22;20177;-76
2022/09/28 07:11:05;;;;;;;6.43;3.67;;;;;;;;;;6270218;22;20170;-75
2022/09/28 07:13:33;;;;;;;5.43;3.83;;;;;;;;;;6243423;22;20182;-75
2022/09/28 07:16:01;;;;;;;5.97;3.60;;;;;;;;;;6271094;22;20202;-75
2022/09/28 07:18:28;;;;;;;5.63;3.13;;;;;;;;;;6269888;22;20174;-74
2022/09/28 07:20:57;;;;;;;4.67;3.30;;;;;;;;;;6268001;22;20196;-77
2022/09/28 07:23:26;;;;;;;8.23;3.53;;;;;;;;;;6266348;22;20702;-76
2022/09/28 07:25:55;;;;;;;8.40;3.37;;;;;;;;;;6267356;22;20589;-78
2022/09/28 07:28:22;;;;;;;7.57;3.30;;;;;;;;;;6239963;22;20529;-77
2022/09/28 07:30:49;;;;;;;5.97;3.33;;;;;;;;;;6270016;22;20169;-79
2022/09/28 07:33:17;;;;;;;5.13;2.53;;;;;;;;;;6271604;22;20563;-78
2022/09/28 07:35:51;;;;;;;7.97;2.50;;;;;;;;;;6268727;22;20196;-76
2022/09/28 07:38:20;;;;;;;3.73;2.30;;;;;;;;;;6269881;22;20709;-80
2022/09/28 07:43:34;;;;;;;6.10;3.03;;;;;;;;;;6270516;22;20203;-78
2022/09/28 07:46:02;;;;;;;5.70;2.93;;;;;;;;;;6240911;22;20197;-79
2022/09/28 07:48:36;;;;;;;6.57;3.40;;;;;;;;;;6269834;22;20244;-79
2022/09/28 07:51:04;;;;;;;5.17;3.20;;;;;;;;;;6268816;22;20173;-82
2022/09/28 07:53:50;;;;;;;4.13;3.20;;;;;;;;;;6269494;22;20252;-82
2022/09/28 07:56:19;;;;;;;5.97;2.80;;;;;;;;;;6260784;22;20251;-81
2022/09/28 07:58:48;;;;;;;3.70;2.83;;;;;;;;;;6270622;22;20256;-81
2022/09/28 08:01:17;;;;;;;4.70;2.50;;;;;;;;;;6243901;22;20261;-81
2022/09/28 08:03:46;;;;;;;3.67;2.43;;;;;;;;;;6270972;22;20174;-80
2022/09/28 08:06:15;;;;;;;4.60;2.53;;;;;;;;;;6284577;22;20198;-79
2022/09/28 08:08:43;;;;;;;6.00;3.10;;;;;;;;;;6261154;22;20216;-78
2022/09/28 08:11:11;;;;;;;5.50;3.00;;;;;;;;;;6262328;22;20228;-78
2022/09/28 08:13:38;;;;;;;9.30;3.20;;;;;;;;;;6278330;22;20176;-80
2022/09/28 08:16:10;;;;;;;4.13;3.13;;;;;;;;;;6248325;22;20613;-78
2022/09/28 08:18:38;;;;;;;5.57;3.20;;;;;;;;;;6271844;22;20173;-79
2022/09/28 08:24:02;;;;;;;4.97;3.17;;;;;;;;;;6204936;23;20174;-80
2022/09/28 08:26:30;;;;;;;5.63;3.30;;;;;;;;;;6226571;22;20198;-81
2022/09/28 08:28:58;;;;;;;4.90;3.23;;;;;;;;;;6244467;22;20169;-80
2022/09/28 08:31:27;;;;;;;7.43;3.17;;;;;;;;;;6270421;22;20187;-81
2022/09/28 08:33:57;;;;;;;5.00;3.07;;;;;;;;;;6268068;22;20235;-86
2022/09/28 08:36:24;;;;;;;3.87;3.00;;;;;;;;;;6266751;22;20580;-78
2022/09/28 08:38:52;;;;;;;4.77;3.00;;;;;;;;;;6242553;22;20784;-80
2022/09/28 08:41:21;;;;;;;4.80;3.07;;;;;;;;;;6271289;22;20173;-77
2022/09/28 08:44:01;;;;;;;5.27;3.50;;;;;;;;;;6270657;22;20180;-77
2022/09/28 08:46:32;;;;;;;4.53;3.37;;;;;;;;;;6266305;22;20200;-78
2022/09/28 08:49:12;;;;;;;4.17;3.20;;;;;;;;;;6265617;22;20173;-81
2022/09/28 08:51:43;;;;;;;5.27;3.10;;;;;;;;;;6266908;22;20179;-79
2022/09/28 08:54:13;;;;;;;4.57;3.07;;;;;;;;;;6268606;22;20215;-77
2022/09/28 08:56:43;;;;;;;5.23;3.50;;;;;;;;;;6264644;22;20373;-77
2022/09/28 08:59:12;;;;;;;5.03;3.10;;;;;;;;;;6268167;22;20180;-78
2022/09/28 09:01:45;;;;;;;5.43;3.67;;;;;;;;;;6270265;22;20652;-78
2022/09/28 09:04:15;;;;;;;4.93;3.17;;;;;;;;;;6270427;22;20684;-79
2022/09/28 09:06:52;;;;;;;4.80;3.70;;;;;;;;;;6270750;22;20203;-83
2022/09/28 09:09:23;;;;;;;4.90;3.03;;;;;;;;;;6247480;22;20173;-85
2022/09/28 09:11:56;;;;;;;5.60;3.50;;;;;;;;;;6276188;22;20165;-85
2022/09/28 09:14:50;;;;;;;3.93;3.10;;;;;;;;;;6277889;22;20200;-86
2022/09/28 09:17:24;;;;;;;6.03;2.93;;;;;;;;;;6277178;22;20204;-87
2022/09/28 09:19:54;;;;;;;3.47;2.67;;;;;;;;;;6275858;22;20173;-84
2022/09/28 09:22:28;;;;;;;3.83;2.70;;;;;;;;;;6275877;22;20185;-86
2022/09/28 09:24:57;;;;;;;2.90;2.50;;;;;;;;;;6274064;22;20237;-83
2022/09/28 09:27:32;;;;;;;3.20;2.53;;;;;;;;;;6275276;22;20190;-86
2022/09/28 09:30:05;;;;;;;5.20;2.80;;;;;;;;;;6248158;22;20188;-86
2022/09/28 09:32:47;;;;;;;2.83;2.40;;;;;;;;;;6276270;22;20248;-86
2022/09/28 09:35:21;;;;;;;2.83;2.47;;;;;;;;;;6270583;22;20227;-87
2022/09/28 09:37:55;;;;;;;4.40;2.60;;;;;;;;;;6274215;22;20192;-87
2022/09/28 09:40:33;;;;;;;5.87;2.63;;;;;;;;;;6276053;22;20652;-90
2022/09/28 09:43:11;;;;;;;4.93;2.73;;;;;;;;;;6279131;22;20161;-85
2022/09/28 09:45:43;;;;;;;3.50;2.93;;;;;;;;;;6275629;22;20166;-88
2022/09/28 09:48:13;;;;;;;3.67;3.23;;;;;;;;;;6245637;22;20577;-84
2022/09/28 09:51:00;;;;;;;6.17;3.77;;;;;;;;;;6248011;22;20178;-85
2022/09/28 09:53:29;;;;;;;4.73;3.57;;;;;;;;;;6278562;22;20161;-86
2022/09/28 09:56:02;;;;;;;4.60;2.73;;;;;;;;;;6276741;22;20182;-84
2022/09/28 09:58:32;;;;;;;2.57;2.23;;;;;;;;;;6272769;22;20220;-87
2022/09/28 10:01:06;;;;;;;2.90;2.20;;;;;;;;;;6273766;22;20193;-87
2022/09/28 10:03:35;;;;;;;3.07;2.40;;;;;;;;;;6247924;22;20178;-88
2022/09/28 10:06:06;;;;;;;2.30;2.10;;;;;;;;;;6272880;22;20173;-85
2022/09/28 10:08:36;;;;;;;3.13;2.00;;;;;;;;;;6237393;23;20820;-85
2022/09/28 10:11:07;;;;;;;3.57;2.27;;;;;;;;;;6240977;23;20654;-87
2022/09/28 10:13:35;;;;;;;2.90;1.90;;;;;;;;;;6240940;23;20162;-86
2022/09/28 10:16:02;;;;;;;4.73;2.40;;;;;;;;;;6243262;23;20181;-85
2022/09/28 10:21:12;;;;;;;2.90;2.07;;;;;;;;;;6298761;22;20208;-88
2022/09/28 10:23:40;;;;;;;2.37;2.00;;;;;;;;;;6299174;22;20165;-91
2022/09/28 10:26:09;;;;;;;2.03;1.80;;;;;;;;;;6302549;22;20181;-88
2022/09/28 10:28:45;;;;;;;3.43;2.07;;;;;;;;;;6305745;22;20197;-90
2022/09/28 10:31:30;;;;;;;2.67;1.80;;;;;;;;;;6307115;22;20226;-90
2022/09/28 10:34:02;;;;;;;3.30;1.90;;;;;;;;;;6304859;22;20181;-89
2022/09/28 10:39:30;;;;;;;2.00;1.53;;;;;;;;;;6304074;22;20200;-88
2022/09/28 10:42:01;;;;;;;6.87;2.00;;;;;;;;;;6300301;22;20247;-88
2022/09/28 10:44:29;;;;;;;2.90;1.60;;;;;;;;;;6302499;22;20202;-85
2022/09/28 10:46:57;;;;;;;2.47;1.60;;;;;;;;;;6299883;22;20294;-88
2022/09/28 10:49:27;;;;;;;4.33;1.80;;;;;;;;;;6298223;22;20188;-90
2022/09/28 10:51:58;;;;;;;2.53;1.80;;;;;;;;;;6302651;22;20180;-88
2022/09/28 10:54:27;;;;;;;2.00;1.57;;;;;;;;;;6302779;22;20188;-90
2022/09/28 10:56:55;;;;;;;2.87;1.70;;;;;;;;;;6300958;22;20205;-91
2022/09/28 10:59:38;;;;;;;2.87;1.80;;;;;;;;;;6301885;22;20169;-89
2022/09/28 11:02:15;;;;;;;9.27;1.80;;;;;;;;;;6301616;22;20165;-88
2022/09/28 11:04:43;;;;;;;3.27;1.63;;;;;;;;;;6301750;22;20189;-89
2022/09/28 11:07:17;;;;;;;2.50;1.60;;;;;;;;;;6303364;22;20522;-90
2022/09/28 11:09:47;;;;;;;2.20;1.40;;;;;;;;;;6302708;22;20175;-90
2022/09/28 11:12:15;;;;;;;1.50;1.40;;;;;;;;;;6302682;22;20177;-87
2022/09/28 11:14:43;;;;;;;2.47;1.40;;;;;;;;;;6301590;22;20187;-88
2022/09/28 11:17:43;;;;;;;2.40;1.50;;;;;;;;;;6301130;22;20539;-89
2022/09/28 11:20:28;;;;;;;2.90;1.27;;;;;;;;;;6302743;22;20204;-87
2022/09/28 11:22:58;;;;;;;9.87;2.60;;;;;;;;;;6303177;22;20239;-86
2022/09/28 11:25:26;;;;;;;2.13;1.40;;;;;;;;;;6303032;22;20200;-87
2022/09/28 11:27:59;;;;;;;2.27;1.50;;;;;;;;;;6303516;22;20571;-87
2022/09/28 11:30:28;;;;;;;2.30;1.27;;;;;;;;;;6304681;22;20264;-91
2022/09/28 11:32:58;;;;;;;1.83;1.60;;;;;;;;;;6302558;22;20181;-88
2022/09/28 11:35:30;;;;;;;4.13;1.43;;;;;;;;;;6302251;22;20177;-90
2022/09/28 11:38:10;;;;;;;2.70;1.40;;;;;;;;;;6302316;22;20303;-88
2022/09/28 11:40:47;;;;;;;3.73;1.20;;;;;;;;;;6303297;22;20161;-87
2022/09/28 11:43:19;;;;;;;4.10;1.17;;;;;;;;;;6299938;22;20161;-88
2022/09/28 11:45:51;;;;;;;2.30;1.10;;;;;;;;;;6301375;22;20176;-89
2022/09/28 11:48:20;;;;;;;1.17;1.00;;;;;;;;;;6301804;22;20191;-89
2022/09/28 11:50:50;;;;;;;1.67;1.10;;;;;;;;;;6300882;22;20165;-87
2022/09/28 11:53:22;;;;;;;2.93;1.20;;;;;;;;;;6299438;22;20252;-86
2022/09/28 11:55:54;;;;;;;1.57;1.10;;;;;;;;;;6302430;22;20161;-86
2022/09/28 11:58:25;;;;;;;3.00;1.10;;;;;;;;;;6300399;22;20197;-87
2022/09/28 12:00:55;;;;;;;2.57;1.00;;;;;;;;;;6303006;22;20205;-89
2022/09/28 12:03:24;;;;;;;1.83;1.23;;;;;;;;;;6308735;22;20207;-86
2022/09/28 12:05:53;;;;;;;2.70;1.40;;;;;;;;;;6319953;22;20173;-87
2022/09/28 12:08:24;;;;;;;28.30;14.70;;;;;;;;;;6313639;22;20223;-86
2022/09/28 12:10:55;;;;;;;51.00;27.27;;;;;;;;;;6315361;22;20181;-87
2022/09/28 12:13:25;;;;;;;71.77;34.53;;;;;;;;;;6317303;22;20166;-88
2022/09/28 12:15:55;;;;;;;2.50;1.70;;;;;;;;;;6306631;22;20196;-86
2022/09/28 12:18:24;;;;;;;11.53;4.17;;;;;;;;;;6299074;22;20697;-86
2022/09/28 12:20:54;;;;;;;7.73;3.67;;;;;;;;;;6300032;22;20242;-87
2022/09/28 12:23:25;;;;;;;11.23;5.00;;;;;;;;;;6299461;22;20180;-86
2022/09/28 12:25:55;;;;;;;4.60;2.63;;;;;;;;;;6299642;22;20169;-87
2022/09/28 12:28:28;;;;;;;3.73;1.90;;;;;;;;;;6299696;22;20201;-87
2022/09/28 12:30:55;;;;;;;3.20;1.10;;;;;;;;;;6299748;22;20166;-86
2022/09/28 12:33:22;;;;;;;1.40;1.20;;;;;;;;;;6298804;22;20181;-87
2022/09/28 12:35:57;;;;;;;1.77;1.07;;;;;;;;;;6302072;22;20263;-88
2022/09/28 12:38:36;;;;;;;2.73;1.20;;;;;;;;;;6298475;22;20200;-87
2022/09/28 12:41:08;;;;;;;3.90;1.40;;;;;;;;;;6299580;22;20169;-88
2022/09/28 12:43:49;;;;;;;3.20;1.30;;;;;;;;;;6300659;22;20175;-90
2022/09/28 12:46:24;;;;;;;1.57;1.20;;;;;;;;;;6300269;22;20173;-90
2022/09/28 12:49:17;;;;;;;1.90;1.20;;;;;;;;;;6300029;22;20245;-90
2022/09/28 12:51:48;;;;;;;3.70;1.47;;;;;;;;;;6301813;22;20165;-89
2022/09/28 12:54:27;;;;;;;2.20;1.30;;;;;;;;;;6300759;22;20240;-90
2022/09/28 12:56:59;;;;;;;4.00;1.77;;;;;;;;;;6300037;22;20196;-88
2022/09/28 12:59:28;;;;;;;12.87;6.13;;;;;;;;;;6300598;22;20185;-89
2022/09/28 13:02:21;;;;;;;5.23;1.63;;;;;;;;;;6301912;22;20177;-88
2022/09/28 13:04:59;;;;;;;9.23;4.33;;;;;;;;;;6301857;22;20271;-89
2022/09/28 13:07:32;;;;;;;6.43;3.40;;;;;;;;;;6299159;22;20192;-88
2022/09/28 13:10:09;;;;;;;3.03;2.30;;;;;;;;;;6299158;22;20264;-88
2022/09/28 13:12:55;;;;;;;6.53;2.70;;;;;;;;;;6300834;22;20211;-88
2022/09/28 13:15:36;;;;;;;6.47;2.00;;;;;;;;;;6297389;22;20563;-88
2022/09/28 13:18:06;;;;;;;5.37;2.07;;;;;;;;;;6301331;22;20201;-89
2022/09/28 13:20:40;;;;;;;2.83;1.80;;;;;;;;;;6300293;22;20239;-88
2022/09/28 13:23:13;;;;;;;3.37;2.30;;;;;;;;;;6302637;22;20511;-91
2022/09/28 13:25:55;;;;;;;4.17;2.40;;;;;;;;;;6301068;22;20168;-88
2022/09/28 13:28:26;;;;;;;3.93;1.87;;;;;;;;;;6288324;22;20199;-89
2022/09/28 13:30:54;;;;;;;3.53;1.90;;;;;;;;;;6299582;22;20246;-88
2022/09/28 13:33:26;;;;;;;3.10;1.70;;;;;;;;;;6297175;22;20177;-90
2022/09/28 13:35:54;;;;;;;5.40;1.90;;;;;;;;;;6298941;22;20192;-88
2022/09/28 13:38:31;;;;;;;5.00;1.77;;;;;;;;;;6301064;22;20280;-89
2022/09/28 13:41:27;;;;;;;6.63;1.90;;;;;;;;;;6300867;22;20172;-89
2022/09/28 13:44:16;;;;;;;3.77;1.87;;;;;;;;;;6231598;22;20205;-90
2022/09/28 13:46:51;;;;;;;3.33;1.60;;;;;;;;;;6284566;22;20215;-90
2022/09/28 13:49:22;;;;;;;4.07;1.60;;;;;;;;;;6275054;22;20180;-89
2022/09/28 13:52:00;;;;;;;3.40;1.30;;;;;;;;;;6298639;22;20177;-90
2022/09/28 13:54:39;;;;;;;2.40;1.60;;;;;;;;;;6305915;22;20184;-90
2022/09/28 13:57:14;;;;;;;3.73;1.27;;;;;;;;;;6304180;22;20193;-91
2022/09/28 13:59:47;;;;;;;2.93;1.60;;;;;;;;;;6304987;22;20188;-90
2022/09/28 14:02:28;;;;;;;2.70;1.47;;;;;;;;;;6303401;22;20631;-92
2022/09/28 14:04:57;;;;;;;5.03;1.40;;;;;;;;;;6305349;22;20603;-91
2022/09/28 14:07:26;;;;;;;3.13;1.40;;;;;;;;;;6303435;22;20193;-91
2022/09/28 14:10:12;;;;;;;4.00;1.27;;;;;;;;;;6306543;22;20201;-91
2022/09/28 14:12:47;;;;;;;5.87;1.43;;;;;;;;;;6304676;22;20176;-91
2022/09/28 14:15:32;;;;;;;3.83;1.50;;;;;;;;;;6303157;22;20175;-92
2022/09/28 14:18:06;;;;;;;2.73;1.60;;;;;;;;;;6303950;22;20197;-92
2022/09/28 14:20:35;;;;;;;4.10;1.60;;;;;;;;;;6304472;22;20929;-93
2022/09/28 14:23:21;;;;;;;3.43;1.40;;;;;;;;;;6303340;22;20647;-89
2022/09/28 14:26:00;;;;;;;2.30;1.13;;;;;;;;;;6303458;22;20188;-90
2022/09/28 14:28:34;;;;;;;3.53;1.30;;;;;;;;;;6304406;22;20220;-90
2022/09/28 14:31:09;;;;;;;1.77;1.20;;;;;;;;;;6301147;22;20172;-90
2022/09/28 14:33:41;;;;;;;3.77;1.77;;;;;;;;;;6305457;22;20163;-92
2022/09/28 14:41:08;;;;;;;4.40;1.20;;;;;;;;;;6302867;22;20244;-90
2022/09/28 14:42:08;;;;;;;3.53;1.50;;;;;;;;;;6265776;22;20165;-89
2022/09/28 14:45:05;;;;;;;4.40;1.40;;;;;;;;;;6302070;22;20161;-89
2022/09/28 14:47:35;;;;;;;2.20;1.30;;;;;;;;;;6302075;22;20232;-89
2022/09/28 14:50:19;;;;;;;6.20;2.87;;;;;;;;;;6301730;22;20169;-87
2022/09/28 14:52:48;;;;;;;3.33;1.60;;;;;;;;;;6300365;22;20183;-91
2022/09/28 14:55:22;;;;;;;3.93;1.00;;;;;;;;;;6302214;22;20248;-91
2022/09/28 14:57:54;;;;;;;2.73;1.40;;;;;;;;;;6303450;22;20207;-91
2022/09/28 15:00:23;;;;;;;4.63;2.23;;;;;;;;;;6303190;22;20200;-91
2022/09/28 15:02:51;;;;;;;3.93;1.30;;;;;;;;;;6296254;22;20181;-93
2022/09/28 15:05:23;;;;;;;3.87;1.20;;;;;;;;;;6301605;22;20169;-92
2022/09/28 15:07:51;;;;;;;2.83;1.80;;;;;;;;;;6304253;22;20193;-91
2022/09/28 15:10:30;;;;;;;3.27;1.27;;;;;;;;;;6303697;22;20200;-91
2022/09/28 15:13:00;;;;;;;2.70;1.00;;;;;;;;;;6303833;22;20185;-92
2022/09/28 15:15:37;;;;;;;1.47;0.90;;;;;;;;;;6300716;22;20230;-93
2022/09/28 15:18:17;;;;;;;0.90;0.70;;;;;;;;;;6299136;22;20196;-92
2022/09/28 15:20:48;;;;;;;3.73;0.90;;;;;;;;;;6273107;22;20181;-90
2022/09/28 15:23:43;;;;;;;2.83;1.20;;;;;;;;;;6299799;22;20225;-92